createdAt,value
2023-01-05T00:00:16.563Z,43.45
2023-01-05T00:01:19.527Z,43.48
2023-01-05T00:02:24.562Z,43.54
2023-01-05T00:03:27.075Z,43.60
2023-01-05T00:04:29.763Z,43.65
2023-01-05T00:05:33.212Z,43.61
2023-01-05T00:06:36.719Z,43.68
2023-01-05T00:07:39.224Z,43.72
2023-01-05T00:08:42.298Z,43.76
2023-01-05T00:09:45.587Z,43.79
2023-01-05T00:11:07.400Z,43.84
2023-01-05T00:12:28.909Z,43.79
2023-01-05T00:13:49.837Z,43.81
2023-01-05T00:15:11.019Z,43.74
2023-01-05T00:16:32.489Z,43.78
2023-01-05T00:17:54.340Z,43.83
2023-01-05T00:19:15.126Z,43.90
2023-01-05T00:20:38.947Z,43.97
2023-01-05T00:22:00.202Z,44.09
2023-01-05T00:23:03.833Z,44.12
2023-01-05T00:24:06.934Z,44.21
2023-01-05T00:25:14.594Z,44.28
2023-01-05T00:26:18.589Z,44.33
2023-01-05T00:27:21.486Z,44.63
2023-01-05T00:28:25.255Z,44.63
2023-01-05T00:29:28.320Z,44.41
2023-01-05T00:30:41.800Z,44.48
2023-01-05T00:31:45.428Z,44.46
2023-01-05T00:32:48.858Z,44.45
2023-01-05T00:33:51.344Z,44.45
2023-01-05T00:34:55.893Z,44.46
2023-01-05T00:35:58.404Z,44.45
2023-01-05T00:37:02.178Z,44.45
2023-01-05T00:38:06.396Z,44.44
2023-01-05T00:39:09.719Z,44.45
2023-01-05T00:40:16.228Z,44.45
2023-01-05T00:41:20.293Z,44.45
2023-01-05T00:42:23.782Z,44.45
2023-01-05T00:43:27.906Z,44.50
2023-01-05T00:44:30.203Z,44.56
2023-01-05T00:45:32.810Z,44.55
2023-01-05T00:46:35.766Z,44.52
2023-01-05T00:47:38.175Z,44.50
2023-01-05T00:48:40.818Z,44.49
2023-01-05T00:49:45.054Z,44.54
2023-01-05T00:50:52.288Z,44.54
2023-01-05T00:51:54.627Z,44.50
2023-01-05T00:52:57.330Z,44.50
2023-01-05T00:53:59.509Z,44.52
2023-01-05T00:55:01.695Z,44.49
2023-01-05T00:56:06.435Z,44.49
2023-01-05T00:57:12.454Z,44.45
2023-01-05T00:58:15.015Z,44.48
2023-01-05T00:59:18.131Z,44.48
2023-01-05T01:00:21.925Z,44.49
2023-01-05T01:01:25.330Z,44.49
2023-01-05T01:02:27.888Z,44.48
2023-01-05T01:03:30.374Z,44.56
2023-01-05T01:04:33.044Z,44.51
2023-01-05T01:05:35.870Z,44.53
2023-01-05T01:06:38.515Z,44.54
2023-01-05T01:07:40.920Z,44.53
2023-01-05T01:08:43.412Z,44.54
2023-01-05T01:09:46.723Z,44.51
2023-01-05T01:10:49.665Z,44.51
2023-01-05T01:11:52.042Z,44.55
2023-01-05T01:12:54.339Z,44.53
2023-01-05T01:13:56.732Z,44.56
2023-01-05T01:14:59.800Z,44.55
2023-01-05T01:17:20.012Z,44.59
2023-01-05T01:18:22.859Z,44.59
2023-01-05T01:19:25.747Z,44.62
2023-01-05T01:20:28.633Z,44.59
2023-01-05T01:21:31.192Z,44.62
2023-01-05T01:22:33.475Z,44.66
2023-01-05T01:23:40.568Z,44.65
2023-01-05T01:24:43.122Z,44.67
2023-01-05T01:25:47.267Z,44.58
2023-01-05T01:26:50.799Z,44.59
2023-01-05T01:27:53.129Z,44.59
2023-01-05T01:28:56.481Z,44.60
2023-01-05T01:29:59.047Z,44.65
2023-01-05T01:31:02.946Z,44.66
2023-01-05T01:32:06.172Z,44.63
2023-01-05T01:33:10.435Z,44.61
2023-01-05T01:34:13.559Z,44.66
2023-01-05T01:35:17.163Z,44.66
2023-01-05T01:36:22.119Z,44.67
2023-01-05T01:37:25.289Z,44.67
2023-01-05T01:38:31.213Z,44.65
2023-01-05T01:39:34.106Z,44.67
2023-01-05T01:41:53.336Z,44.67
2023-01-05T01:42:55.924Z,44.72
2023-01-05T01:43:58.544Z,44.71
2023-01-05T01:46:30.401Z,44.67
2023-01-05T01:47:43.164Z,44.68
2023-01-05T01:48:48.808Z,44.67
2023-01-05T01:49:51.633Z,44.71
2023-01-05T01:50:54.307Z,44.72
2023-01-05T01:51:57.217Z,44.68
2023-01-05T01:53:03.622Z,44.68
2023-01-05T01:54:09.226Z,44.73
2023-01-05T01:55:11.666Z,44.69
2023-01-05T01:56:16.942Z,44.67
2023-01-05T01:57:19.489Z,44.71
2023-01-05T01:58:24.286Z,44.66
2023-01-05T01:59:27.228Z,44.68
2023-01-05T02:00:32.611Z,44.68
2023-01-05T02:01:36.477Z,44.67
2023-01-05T02:02:40.830Z,44.71
2023-01-05T02:03:43.211Z,44.66
2023-01-05T02:04:46.105Z,44.72
2023-01-05T02:05:49.112Z,44.73
2023-01-05T02:06:52.603Z,44.80
2023-01-05T02:07:55.055Z,44.90
2023-01-05T02:08:57.552Z,45.03
2023-01-05T02:10:00.206Z,44.95
2023-01-05T02:11:40.307Z,44.83
2023-01-05T02:12:48.673Z,44.83
2023-01-05T02:14:13.217Z,44.67
2023-01-05T02:15:45.918Z,44.65
2023-01-05T02:17:01.963Z,44.62
2023-01-05T02:18:26.636Z,44.58
2023-01-05T02:20:08.752Z,44.67
2023-01-05T02:21:26.677Z,44.64
2023-01-05T02:22:57.998Z,44.64
2023-01-05T02:24:26.991Z,44.72
2023-01-05T02:25:51.413Z,44.82
2023-01-05T02:27:25.426Z,44.83
2023-01-05T02:28:57.661Z,44.83
2023-01-05T02:30:06.725Z,44.83
2023-01-05T02:32:39.350Z,44.96
2023-01-05T02:34:10.243Z,44.99
2023-01-05T02:35:22.315Z,45.02
2023-01-05T02:36:38.489Z,45.01
2023-01-05T02:39:19.551Z,45.00
2023-01-05T02:41:50.570Z,45.01
2023-01-05T02:42:54.814Z,45.01
2023-01-05T02:43:58.219Z,45.02
2023-01-05T02:45:06.826Z,44.99
2023-01-05T02:46:09.847Z,44.99
2023-01-05T02:47:28.352Z,45.07
2023-01-05T02:48:31.896Z,45.10
2023-01-05T02:49:37.281Z,45.00
2023-01-05T02:52:00.412Z,44.99
2023-01-05T02:53:07.018Z,45.02
2023-01-05T02:54:22.526Z,44.99
2023-01-05T02:55:42.913Z,44.98
2023-01-05T02:58:36.014Z,44.96
2023-01-05T02:59:42.288Z,44.97
2023-01-05T03:02:16.520Z,44.99
2023-01-05T03:03:24.315Z,45.02
2023-01-05T03:04:46.470Z,45.07
2023-01-05T03:06:01.789Z,45.09
2023-01-05T03:07:14.791Z,45.10
2023-01-05T03:08:32.081Z,45.07
2023-01-05T03:09:33.929Z,45.07
2023-01-05T03:12:47.556Z,45.32
2023-01-05T03:14:10.800Z,45.36
2023-01-05T03:15:22.398Z,45.40
2023-01-05T03:16:28.070Z,45.40
2023-01-05T03:17:51.716Z,45.42
2023-01-05T03:19:13.905Z,45.47
2023-01-05T03:20:19.040Z,45.45
2023-01-05T03:21:22.176Z,45.44
2023-01-05T03:22:46.794Z,45.41
2023-01-05T03:24:07.752Z,45.41
2023-01-05T03:25:31.873Z,45.45
2023-01-05T03:26:54.507Z,45.40
2023-01-05T03:28:15.481Z,45.40
2023-01-05T03:29:36.829Z,45.40
2023-01-05T03:33:09.181Z,45.47
2023-01-05T03:34:34.428Z,45.50
2023-01-05T03:35:42.076Z,45.54
2023-01-05T03:36:51.119Z,45.57
2023-01-05T03:37:57.676Z,45.67
2023-01-05T03:39:01.806Z,45.74
2023-01-05T03:40:09.536Z,45.91
2023-01-05T03:41:14.961Z,46.15
2023-01-05T03:42:18.675Z,46.28
2023-01-05T03:43:21.060Z,46.35
2023-01-05T03:44:25.271Z,46.41
2023-01-05T03:46:46.555Z,46.41
2023-01-05T03:47:50.233Z,46.41
2023-01-05T03:48:54.492Z,46.49
2023-01-05T03:49:57.396Z,46.62
2023-01-05T03:51:00.783Z,46.64
2023-01-05T03:52:04.786Z,46.72
2023-01-05T03:53:08.130Z,46.79
2023-01-05T03:54:10.965Z,46.89
2023-01-05T03:55:13.920Z,46.88
2023-01-05T03:56:18.052Z,46.85
2023-01-05T03:57:20.897Z,46.83
2023-01-05T03:58:23.314Z,46.88
2023-01-05T03:59:27.903Z,46.86
2023-01-05T04:00:32.498Z,46.85
2023-01-05T04:01:36.589Z,46.85
2023-01-05T04:02:39.925Z,46.85
2023-01-05T04:03:43.983Z,46.87
2023-01-05T04:04:46.983Z,46.87
2023-01-05T04:05:51.106Z,46.85
2023-01-05T04:06:53.847Z,46.88
2023-01-05T04:07:58.867Z,46.91
2023-01-05T04:09:01.616Z,46.94
2023-01-05T04:10:06.791Z,46.96
2023-01-05T04:12:28.304Z,47.06
2023-01-05T04:13:31.596Z,47.06
2023-01-05T04:14:36.094Z,47.03
2023-01-05T04:15:40.154Z,47.01
2023-01-05T04:16:43.895Z,47.07
2023-01-05T04:17:51.009Z,47.05
2023-01-05T04:18:53.502Z,47.01
2023-01-05T04:19:56.482Z,47.04
2023-01-05T04:21:00.142Z,47.14
2023-01-05T04:22:02.578Z,47.14
2023-01-05T04:23:05.549Z,47.14
2023-01-05T04:24:10.636Z,47.12
2023-01-05T04:25:15.252Z,47.12
2023-01-05T04:26:19.460Z,47.15
2023-01-05T04:27:24.708Z,47.14
2023-01-05T04:28:27.152Z,47.20
2023-01-05T04:29:31.020Z,47.22
2023-01-05T04:30:36.850Z,47.20
2023-01-05T04:31:39.354Z,47.20
2023-01-05T04:32:42.222Z,47.30
2023-01-05T04:33:47.172Z,47.24
2023-01-05T04:34:52.178Z,47.28
2023-01-05T04:35:56.145Z,47.29
2023-01-05T04:37:00.601Z,47.31
2023-01-05T04:38:04.401Z,47.26
2023-01-05T04:39:07.290Z,47.28
2023-01-05T04:40:13.108Z,47.27
2023-01-05T04:41:23.462Z,47.26
2023-01-05T04:42:27.249Z,47.24
2023-01-05T04:43:30.193Z,47.28
2023-01-05T04:44:34.829Z,47.29
2023-01-05T04:45:38.935Z,47.26
2023-01-05T04:46:42.320Z,47.28
2023-01-05T04:47:46.328Z,47.39
2023-01-05T04:48:51.172Z,47.32
2023-01-05T04:49:55.871Z,47.29
2023-01-05T04:50:58.741Z,47.32
2023-01-05T04:52:10.040Z,47.26
2023-01-05T04:53:12.887Z,47.23
2023-01-05T04:54:16.667Z,47.20
2023-01-05T04:55:20.189Z,47.18
2023-01-05T04:56:23.153Z,47.21
2023-01-05T04:57:25.933Z,47.17
2023-01-05T04:58:29.475Z,47.17
2023-01-05T04:59:33.374Z,47.15
2023-01-05T05:00:37.888Z,47.15
2023-01-05T05:01:41.166Z,47.14
2023-01-05T05:02:46.865Z,47.17
2023-01-05T05:03:50.708Z,47.21
2023-01-05T05:04:54.669Z,47.26
2023-01-05T05:05:57.452Z,47.29
2023-01-05T05:07:01.544Z,47.32
2023-01-05T05:08:05.998Z,47.40
2023-01-05T05:09:09.569Z,47.43
2023-01-05T05:10:15.432Z,47.44
2023-01-05T05:11:18.302Z,47.57
2023-01-05T05:12:22.374Z,47.66
2023-01-05T05:13:27.095Z,47.82
2023-01-05T05:14:30.354Z,47.82
2023-01-05T05:15:34.399Z,47.84
2023-01-05T05:16:38.140Z,47.95
2023-01-05T05:17:41.225Z,47.93
2023-01-05T05:18:44.499Z,47.90
2023-01-05T05:19:48.947Z,47.86
2023-01-05T05:20:53.714Z,47.84
2023-01-05T05:21:58.035Z,47.77
2023-01-05T05:23:01.293Z,47.75
2023-01-05T05:24:06.497Z,47.74
2023-01-05T05:25:10.964Z,47.77
2023-01-05T05:26:17.776Z,47.74
2023-01-05T05:27:21.342Z,47.77
2023-01-05T05:28:25.974Z,47.74
2023-01-05T05:29:29.501Z,47.77
2023-01-05T05:30:32.363Z,47.75
2023-01-05T05:31:36.239Z,47.65
2023-01-05T05:32:43.988Z,47.52
2023-01-05T05:33:44.711Z,47.46
2023-01-05T05:34:48.002Z,47.34
2023-01-05T05:35:50.749Z,47.24
2023-01-05T05:36:53.888Z,47.19
2023-01-05T05:37:57.173Z,47.13
2023-01-05T05:38:59.596Z,47.06
2023-01-05T05:40:02.164Z,47.03
2023-01-05T05:41:04.904Z,46.97
2023-01-05T05:42:07.404Z,46.91
2023-01-05T05:43:10.453Z,46.86
2023-01-05T05:44:12.912Z,46.81
2023-01-05T05:45:15.335Z,46.75
2023-01-05T05:46:19.111Z,46.65
2023-01-05T05:47:21.483Z,46.64
2023-01-05T05:48:24.111Z,46.59
2023-01-05T05:49:26.585Z,46.56
2023-01-05T05:50:28.988Z,46.53
2023-01-05T05:51:32.300Z,46.59
2023-01-05T05:52:34.735Z,46.56
2023-01-05T05:53:37.052Z,46.65
2023-01-05T05:54:40.411Z,46.84
2023-01-05T05:55:43.431Z,46.82
2023-01-05T05:56:46.340Z,46.87
2023-01-05T05:57:49.175Z,46.84
2023-01-05T05:58:59.073Z,46.86
2023-01-05T05:59:57.725Z,46.82
2023-01-05T06:01:00.238Z,46.87
2023-01-05T06:02:02.602Z,46.90
2023-01-05T06:03:05.727Z,46.90
2023-01-05T06:04:08.455Z,46.91
2023-01-05T06:05:11.990Z,46.88
2023-01-05T06:06:15.043Z,46.91
2023-01-05T06:07:18.939Z,46.96
2023-01-05T06:08:21.383Z,46.96
2023-01-05T06:09:25.409Z,46.95
2023-01-05T06:10:27.995Z,46.98
2023-01-05T06:11:30.384Z,46.98
2023-01-05T06:12:33.186Z,47.03
2023-01-05T06:13:36.739Z,47.05
2023-01-05T06:14:39.436Z,47.05
2023-01-05T06:15:42.984Z,47.07
2023-01-05T06:16:45.387Z,47.05
2023-01-05T06:17:48.827Z,47.05
2023-01-05T06:18:52.965Z,47.07
2023-01-05T06:19:58.242Z,47.09
2023-01-05T06:21:02.181Z,47.09
2023-01-05T06:22:04.657Z,47.09
2023-01-05T06:23:07.009Z,47.17
2023-01-05T06:24:10.461Z,47.15
2023-01-05T06:25:13.439Z,47.14
2023-01-05T06:26:17.016Z,47.18
2023-01-05T06:27:19.434Z,47.18
2023-01-05T06:28:21.866Z,47.15
2023-01-05T06:29:24.743Z,47.16
2023-01-05T06:30:27.351Z,47.13
2023-01-05T06:31:30.309Z,47.17
2023-01-05T06:32:33.333Z,47.47
2023-01-05T06:33:35.722Z,47.16
2023-01-05T06:34:38.140Z,47.15
2023-01-05T06:35:41.885Z,47.09
2023-01-05T06:36:45.476Z,47.09
2023-01-05T06:37:48.453Z,47.09
2023-01-05T06:38:51.076Z,47.12
2023-01-05T06:39:56.221Z,47.09
2023-01-05T06:41:00.363Z,47.12
2023-01-05T06:42:03.785Z,47.11
2023-01-05T06:43:06.927Z,47.14
2023-01-05T06:44:09.385Z,47.12
2023-01-05T06:45:14.642Z,47.08
2023-01-05T06:46:17.840Z,47.08
2023-01-05T06:47:21.304Z,47.01
2023-01-05T06:48:23.883Z,47.04
2023-01-05T06:49:27.291Z,47.03
2023-01-05T06:50:31.597Z,47.01
2023-01-05T06:51:34.110Z,47.03
2023-01-05T06:52:39.378Z,47.07
2023-01-05T06:53:42.844Z,47.06
2023-01-05T06:54:45.283Z,47.07
2023-01-05T06:55:48.628Z,47.06
2023-01-05T06:56:51.209Z,47.06
2023-01-05T06:58:00.253Z,47.06
2023-01-05T06:58:57.915Z,47.04
2023-01-05T07:00:02.631Z,47.01
2023-01-05T07:01:05.412Z,47.01
2023-01-05T07:03:26.584Z,47.05
2023-01-05T07:04:29.018Z,47.07
2023-01-05T07:05:32.111Z,47.08
2023-01-05T07:06:35.570Z,47.10
2023-01-05T07:07:37.925Z,47.13
2023-01-05T07:08:41.271Z,47.01
2023-01-05T07:09:45.852Z,47.03
2023-01-05T07:10:48.624Z,47.04
2023-01-05T07:11:51.317Z,47.03
2023-01-05T07:12:53.503Z,47.01
2023-01-05T07:13:55.934Z,46.99
2023-01-05T07:14:58.221Z,47.02
2023-01-05T07:16:01.005Z,47.03
2023-01-05T07:17:03.459Z,47.09
2023-01-05T07:18:06.728Z,47.10
2023-01-05T07:19:10.058Z,47.08
2023-01-05T07:20:14.300Z,47.03
2023-01-05T07:21:18.001Z,47.03
2023-01-05T07:22:22.111Z,46.99
2023-01-05T07:23:24.355Z,47.03
2023-01-05T07:24:26.676Z,46.99
2023-01-05T07:25:30.990Z,46.97
2023-01-05T07:26:34.067Z,46.98
2023-01-05T07:27:36.720Z,46.99
2023-01-05T07:28:39.222Z,46.97
2023-01-05T07:29:42.268Z,46.99
2023-01-05T07:30:53.314Z,46.98
2023-01-05T07:31:55.909Z,47.07
2023-01-05T07:32:59.357Z,47.03
2023-01-05T07:34:02.095Z,46.99
2023-01-05T07:35:05.318Z,46.96
2023-01-05T07:36:08.259Z,46.96
2023-01-05T07:37:10.999Z,46.91
2023-01-05T07:38:14.105Z,46.86
2023-01-05T07:39:17.771Z,46.86
2023-01-05T07:40:20.263Z,46.81
2023-01-05T07:41:23.502Z,46.84
2023-01-05T07:42:25.786Z,46.86
2023-01-05T07:43:29.782Z,46.88
2023-01-05T07:44:33.260Z,46.85
2023-01-05T07:45:35.786Z,46.84
2023-01-05T07:46:38.525Z,46.82
2023-01-05T07:47:40.955Z,46.80
2023-01-05T07:48:43.398Z,46.79
2023-01-05T07:49:46.397Z,46.75
2023-01-05T07:50:49.036Z,46.78
2023-01-05T07:51:51.373Z,46.76
2023-01-05T07:52:53.775Z,46.75
2023-01-05T07:53:57.124Z,46.70
2023-01-05T07:55:00.560Z,46.68
2023-01-05T07:56:03.959Z,46.64
2023-01-05T07:57:06.449Z,46.61
2023-01-05T07:58:10.059Z,46.62
2023-01-05T07:59:12.451Z,46.62
2023-01-05T08:00:15.665Z,46.55
2023-01-05T08:01:18.225Z,46.53
2023-01-05T08:02:21.098Z,46.58
2023-01-05T08:03:23.742Z,46.59
2023-01-05T08:04:26.428Z,46.55
2023-01-05T08:05:32.017Z,46.57
2023-01-05T08:06:34.622Z,46.52
2023-01-05T08:07:37.691Z,46.53
2023-01-05T08:08:40.309Z,46.54
2023-01-05T08:10:02.491Z,46.57
2023-01-05T08:11:06.157Z,46.51
2023-01-05T08:12:09.895Z,46.52
2023-01-05T08:13:32.510Z,46.55
2023-01-05T08:14:34.884Z,46.55
2023-01-05T08:15:38.053Z,46.53
2023-01-05T08:16:42.335Z,46.53
2023-01-05T08:17:44.780Z,46.64
2023-01-05T08:18:47.567Z,46.60
2023-01-05T08:19:50.541Z,46.60
2023-01-05T08:22:09.245Z,46.60
2023-01-05T08:23:11.534Z,46.72
2023-01-05T08:24:16.827Z,46.77
2023-01-05T08:25:20.881Z,46.78
2023-01-05T08:26:24.051Z,46.91
2023-01-05T08:27:26.510Z,46.83
2023-01-05T08:28:35.196Z,46.66
2023-01-05T08:29:36.080Z,46.58
2023-01-05T08:30:38.616Z,46.50
2023-01-05T08:31:42.786Z,46.44
2023-01-05T08:32:45.607Z,46.41
2023-01-05T08:33:48.044Z,46.37
2023-01-05T08:34:55.564Z,46.33
2023-01-05T08:35:56.457Z,46.32
2023-01-05T08:36:59.016Z,46.29
2023-01-05T08:38:01.334Z,46.26
2023-01-05T08:39:03.831Z,46.23
2023-01-05T08:40:10.456Z,46.24
2023-01-05T08:41:15.686Z,46.24
2023-01-05T08:42:19.070Z,46.21
2023-01-05T08:43:22.263Z,46.20
2023-01-05T08:44:24.632Z,46.19
2023-01-05T08:45:27.056Z,46.18
2023-01-05T08:46:32.378Z,46.17
2023-01-05T08:47:34.745Z,46.15
2023-01-05T08:48:37.146Z,46.14
2023-01-05T08:49:39.630Z,46.13
2023-01-05T08:50:43.081Z,46.08
2023-01-05T08:51:45.928Z,46.06
2023-01-05T08:52:48.376Z,46.04
2023-01-05T08:53:51.705Z,46.00
2023-01-05T08:54:54.793Z,45.66
2023-01-05T08:55:59.829Z,44.97
2023-01-05T08:57:03.214Z,43.14
2023-01-05T08:58:05.985Z,43.18
2023-01-05T08:59:11.628Z,43.18
2023-01-05T09:00:22.170Z,42.08
2023-01-05T09:01:24.643Z,42.45
2023-01-05T09:02:27.296Z,41.88
2023-01-05T09:03:29.911Z,40.98
2023-01-05T09:04:32.820Z,41.51
2023-01-05T09:05:36.022Z,40.31
2023-01-05T09:06:39.841Z,40.56
2023-01-05T09:07:42.617Z,40.26
2023-01-05T09:08:45.050Z,40.13
2023-01-05T09:09:48.567Z,39.68
2023-01-05T09:10:51.484Z,39.22
2023-01-05T09:11:54.412Z,40.10
2023-01-05T09:12:57.023Z,38.68
2023-01-05T09:14:02.327Z,38.77
2023-01-05T09:15:07.200Z,39.32
2023-01-05T09:16:12.091Z,39.50
2023-01-05T09:17:16.628Z,38.66
2023-01-05T09:18:18.895Z,38.71
2023-01-05T09:19:21.383Z,39.12
2023-01-05T09:20:24.175Z,39.52
2023-01-05T09:21:27.857Z,39.66
2023-01-05T09:22:31.645Z,39.28
2023-01-05T09:24:37.453Z,39.10
2023-01-05T09:25:40.498Z,38.49
2023-01-05T09:26:43.076Z,38.56
2023-01-05T09:27:46.532Z,38.73
2023-01-05T09:28:49.503Z,39.46
2023-01-05T09:29:52.134Z,38.87
2023-01-05T09:30:56.506Z,39.44
2023-01-05T09:31:59.300Z,39.56
2023-01-05T09:33:02.656Z,40.19
2023-01-05T09:34:05.016Z,39.20
2023-01-05T09:35:08.194Z,38.64
2023-01-05T09:36:14.530Z,38.25
2023-01-05T09:37:17.261Z,38.60
2023-01-05T09:38:20.157Z,39.70
2023-01-05T09:39:22.529Z,38.88
2023-01-05T09:40:25.023Z,39.22
2023-01-05T09:42:46.291Z,39.19
2023-01-05T09:43:51.636Z,39.24
2023-01-05T09:44:59.405Z,39.86
2023-01-05T09:46:03.978Z,38.96
2023-01-05T09:47:19.821Z,39.12
2023-01-05T09:48:23.408Z,39.32
2023-01-05T09:49:25.918Z,39.95
2023-01-05T09:51:42.962Z,40.40
2023-01-05T09:52:45.317Z,40.96
2023-01-05T09:53:47.733Z,40.90
2023-01-05T09:54:50.581Z,40.24
2023-01-05T09:55:54.684Z,39.89
2023-01-05T09:58:34.277Z,40.01
2023-01-05T09:59:38.813Z,40.18
2023-01-05T10:00:43.623Z,40.43
2023-01-05T10:01:48.043Z,40.47
2023-01-05T10:03:07.005Z,39.59
2023-01-05T10:04:15.225Z,39.62
2023-01-05T10:05:18.306Z,39.42
2023-01-05T10:06:21.003Z,39.43
2023-01-05T10:07:44.488Z,39.77
2023-01-05T10:08:49.831Z,39.66
2023-01-05T10:09:52.178Z,39.89
2023-01-05T10:11:16.449Z,39.89
2023-01-05T10:12:50.609Z,39.40
2023-01-05T10:15:27.569Z,38.94
2023-01-05T10:16:30.959Z,38.91
2023-01-05T10:17:42.431Z,39.71
2023-01-05T10:18:41.089Z,39.71
2023-01-05T10:19:46.042Z,40.06
2023-01-05T10:21:03.051Z,40.93
2023-01-05T10:22:35.049Z,40.56
2023-01-05T10:23:38.347Z,40.85
2023-01-05T10:24:47.114Z,39.97
2023-01-05T10:25:53.339Z,39.25
2023-01-05T10:28:20.861Z,39.00
2023-01-05T10:29:26.917Z,39.60
2023-01-05T10:32:26.054Z,38.54
2023-01-05T10:33:53.891Z,39.18
2023-01-05T10:35:02.265Z,38.68
2023-01-05T10:36:58.078Z,39.25
2023-01-05T10:37:54.343Z,40.00
2023-01-05T10:39:00.478Z,39.89
2023-01-05T10:40:27.799Z,38.80
2023-01-05T10:41:40.138Z,37.69
2023-01-05T10:42:50.860Z,38.26
2023-01-05T10:44:09.667Z,38.30
2023-01-05T10:45:14.876Z,39.18
2023-01-05T10:46:40.655Z,38.73
2023-01-05T10:47:28.224Z,38.74
2023-01-05T10:48:33.733Z,39.35
2023-01-05T10:49:36.827Z,38.95
2023-01-05T10:50:40.941Z,39.33
2023-01-05T10:51:44.236Z,39.25
2023-01-05T10:52:47.710Z,39.35
2023-01-05T10:53:50.274Z,38.87
2023-01-05T10:56:15.112Z,39.23
2023-01-05T10:57:36.566Z,39.21
2023-01-05T10:58:40.980Z,38.97
2023-01-05T11:00:05.978Z,38.99
2023-01-05T11:01:26.348Z,38.21
2023-01-05T11:02:36.952Z,38.35
2023-01-05T11:04:49.468Z,38.44
2023-01-05T11:05:51.891Z,38.63
2023-01-05T11:07:04.027Z,39.01
2023-01-05T11:08:19.041Z,39.96
2023-01-05T11:09:26.759Z,40.40
2023-01-05T11:10:35.202Z,40.51
2023-01-05T11:11:37.537Z,40.60
2023-01-05T11:12:40.041Z,40.64
2023-01-05T11:13:48.015Z,40.67
2023-01-05T11:14:58.694Z,40.65
2023-01-05T11:16:01.785Z,40.69
2023-01-05T11:17:06.074Z,40.71
2023-01-05T11:18:24.724Z,40.74
2023-01-05T11:19:32.726Z,40.71
2023-01-05T11:20:35.586Z,40.74
2023-01-05T11:21:43.052Z,40.77
2023-01-05T11:22:47.880Z,40.80
2023-01-05T11:25:32.875Z,40.86
2023-01-05T11:28:11.916Z,40.95
2023-01-05T11:29:15.822Z,41.00
2023-01-05T11:30:20.309Z,41.02
2023-01-05T11:31:22.584Z,40.97
2023-01-05T11:32:24.949Z,40.95
2023-01-05T11:33:29.677Z,40.89
2023-01-05T11:34:46.104Z,40.90
2023-01-05T11:35:49.704Z,41.17
2023-01-05T11:36:53.948Z,41.23
2023-01-05T11:37:57.385Z,41.23
2023-01-05T11:39:00.140Z,41.16
2023-01-05T11:40:03.569Z,40.91
2023-01-05T11:41:06.692Z,40.91
2023-01-05T11:42:26.350Z,41.06
2023-01-05T11:43:30.750Z,40.98
2023-01-05T11:44:33.943Z,40.93
2023-01-05T11:46:54.416Z,40.87
2023-01-05T11:47:58.942Z,40.81
2023-01-05T11:49:01.721Z,40.75
2023-01-05T11:50:11.055Z,40.73
2023-01-05T11:51:35.943Z,40.62
2023-01-05T11:52:41.362Z,40.55
2023-01-05T11:53:48.282Z,40.39
2023-01-05T11:54:53.719Z,40.37
2023-01-05T14:01:07.647Z,47.95
2023-01-05T14:02:22.923Z,47.99
2023-01-05T14:04:42.381Z,48.05
2023-01-05T14:07:16.207Z,47.83
2023-01-05T14:08:23.341Z,47.68
2023-01-05T14:09:37.813Z,47.58
2023-01-05T14:10:41.120Z,47.38
2023-01-05T14:15:16.721Z,46.01
2023-01-05T14:16:38.140Z,45.73
2023-01-05T14:17:57.142Z,45.31
2023-01-05T14:19:24.781Z,45.05
2023-01-05T14:20:41.034Z,44.84
2023-01-05T14:21:53.897Z,44.71
2023-01-05T14:22:56.955Z,44.66
2023-01-05T14:24:00.420Z,44.59
2023-01-05T14:25:42.992Z,44.51
2023-01-05T14:27:08.442Z,44.43
2023-01-05T14:28:19.264Z,44.28
2023-01-05T14:29:47.222Z,44.12
2023-01-05T14:30:50.756Z,44.11
2023-01-05T14:31:54.406Z,44.09
2023-01-05T14:32:56.958Z,44.15
2023-01-05T14:34:03.730Z,44.10
2023-01-05T14:35:26.067Z,44.08
2023-01-05T14:36:34.914Z,44.08
2023-01-05T14:37:41.356Z,44.05
2023-01-05T14:38:47.421Z,44.00
2023-01-05T14:39:53.151Z,44.00
2023-01-05T14:40:57.097Z,43.96
2023-01-05T14:42:06.564Z,43.98
2023-01-05T14:43:25.281Z,43.97
2023-01-05T14:45:43.080Z,43.92
2023-01-05T14:46:54.236Z,43.89
2023-01-05T14:49:36.216Z,43.96
2023-01-05T14:50:42.540Z,43.97
2023-01-05T14:51:55.853Z,44.04
2023-01-05T14:53:03.618Z,43.94
2023-01-05T14:54:06.507Z,43.97
2023-01-05T14:55:33.626Z,44.05
2023-01-05T14:56:27.320Z,44.05
2023-01-05T14:57:35.435Z,44.05
2023-01-05T14:58:42.059Z,44.17
2023-01-05T14:59:44.302Z,44.15
2023-01-05T15:00:58.179Z,44.23
2023-01-05T15:02:04.544Z,44.20
2023-01-05T15:03:38.507Z,44.21
2023-01-05T15:04:42.444Z,44.30
2023-01-05T15:05:58.426Z,44.38
2023-01-05T15:07:34.376Z,44.43
2023-01-05T15:08:57.028Z,44.46
2023-01-05T15:12:05.838Z,44.50
2023-01-05T15:13:30.525Z,44.58
2023-01-05T15:14:54.842Z,44.61
2023-01-05T15:16:06.472Z,44.65
2023-01-05T15:17:31.435Z,44.63
2023-01-05T15:18:44.375Z,44.63
2023-01-05T15:20:09.967Z,44.58
2023-01-05T15:21:31.525Z,44.49
2023-01-05T15:23:02.741Z,44.39
2023-01-05T15:24:34.221Z,44.31
2023-01-05T15:26:03.450Z,44.23
2023-01-05T15:27:29.617Z,44.20
2023-01-05T15:28:52.940Z,44.15
2023-01-05T15:30:11.981Z,44.12
2023-01-05T15:31:20.300Z,44.13
2023-01-05T15:32:26.452Z,44.18
2023-01-05T15:33:44.713Z,44.19
2023-01-05T15:35:07.557Z,44.23
2023-01-05T15:36:16.214Z,44.24
2023-01-05T15:37:32.138Z,44.27
2023-01-05T15:38:46.958Z,44.28
2023-01-05T15:39:51.358Z,44.23
2023-01-05T15:41:04.083Z,44.18
2023-01-05T15:42:08.276Z,44.15
2023-01-05T15:43:12.139Z,44.11
2023-01-05T15:44:19.676Z,44.02
2023-01-05T15:46:37.852Z,43.87
2023-01-05T15:47:40.867Z,43.81
2023-01-05T15:48:45.327Z,43.81
2023-01-05T15:49:49.713Z,43.74
2023-01-05T15:50:53.769Z,43.73
2023-01-05T15:51:56.640Z,43.70
2023-01-05T15:53:01.357Z,43.67
2023-01-05T15:54:05.321Z,43.67
2023-01-05T15:55:16.305Z,43.69
2023-01-05T15:57:43.583Z,43.86
2023-01-05T15:58:47.013Z,43.89
2023-01-05T15:59:51.257Z,43.89
2023-01-05T16:01:11.380Z,43.88
2023-01-05T16:02:25.870Z,43.87
2023-01-05T16:03:31.887Z,43.81
2023-01-05T16:04:35.337Z,43.80
2023-01-05T16:05:39.477Z,43.75
2023-01-05T16:06:47.891Z,43.76
2023-01-05T16:07:56.907Z,43.76
2023-01-05T16:09:02.925Z,43.72
2023-01-05T16:10:06.469Z,43.71
2023-01-05T16:11:10.021Z,43.70
2023-01-05T16:12:26.107Z,43.68
2023-01-05T16:13:53.236Z,43.65
2023-01-05T16:15:01.885Z,43.64
2023-01-05T16:16:50.702Z,43.60
2023-01-05T16:17:30.507Z,43.59
2023-01-05T16:18:37.707Z,43.54
2023-01-05T16:19:49.501Z,43.68
2023-01-05T16:20:53.581Z,43.70
2023-01-05T16:23:22.353Z,43.77
2023-01-05T16:24:45.255Z,43.76
2023-01-05T16:25:55.452Z,43.75
2023-01-05T16:26:58.352Z,43.73
2023-01-05T16:28:08.288Z,43.72
2023-01-05T16:29:23.870Z,43.71
2023-01-05T16:30:42.870Z,43.68
2023-01-05T16:31:53.898Z,43.63
2023-01-05T16:33:01.655Z,43.60
2023-01-05T16:34:08.089Z,43.57
2023-01-05T16:35:33.745Z,43.54
2023-01-05T16:36:37.606Z,43.50
2023-01-05T16:37:40.633Z,43.46
2023-01-05T16:38:43.664Z,43.41
2023-01-05T16:39:46.741Z,43.38
2023-01-05T16:40:55.894Z,43.35
2023-01-05T16:42:26.565Z,43.35
2023-01-05T16:43:33.089Z,43.31
2023-01-05T16:44:36.033Z,43.28
2023-01-05T16:45:40.928Z,43.27
2023-01-05T16:46:44.166Z,43.29
2023-01-05T16:47:46.522Z,43.30
2023-01-05T16:48:58.157Z,43.32
2023-01-05T16:50:01.603Z,43.29
2023-01-05T16:51:06.781Z,43.28
2023-01-05T16:52:14.268Z,43.25
2023-01-05T16:53:18.953Z,43.24
2023-01-05T16:55:38.586Z,43.23
2023-01-05T16:56:51.824Z,43.19
2023-01-05T16:57:54.358Z,43.21
2023-01-05T16:58:56.520Z,43.19
2023-01-05T16:59:59.256Z,43.18
2023-01-05T17:01:17.727Z,43.17
2023-01-05T17:02:46.129Z,43.16
2023-01-05T17:03:48.867Z,43.18
2023-01-05T17:04:51.300Z,43.21
2023-01-05T17:05:54.193Z,43.25
2023-01-05T17:06:58.448Z,43.29
2023-01-05T17:08:22.202Z,43.33
2023-01-05T17:09:27.723Z,43.34
2023-01-05T17:10:30.584Z,43.34
2023-01-05T17:11:37.885Z,43.35
2023-01-05T17:12:40.217Z,43.37
2023-01-05T17:13:48.413Z,43.35
2023-01-05T17:14:50.936Z,43.36
2023-01-05T17:15:54.616Z,43.33
2023-01-05T17:16:59.650Z,43.30
2023-01-05T17:18:25.043Z,43.26
2023-01-05T17:19:27.554Z,43.25
2023-01-05T17:20:34.218Z,43.19
2023-01-05T17:22:41.363Z,43.15